SFO weather

San Francisco International Airport
San Francisco, California, United States

Public forecast

Using degrees Fahrenheit for public forecast. Weather courtesy of forecast.io.

METAR (pilot weather report)

Retrieved 2017/02/24 13:56 UTC (51 minutes ago):

KSFO 241356Z 00000KT 10SM CLR 05/01 A3024

TAF (pilot weather forecast)

Retrieved 2017/02/24 12:24 UTC (2 hours ago):

TAF KSFO 241120Z 2412/2518 28005KT P6SM SKC FM241700 31007KT P6SM FEW025 SCT150 FM242100 30012KT P6SM FEW025 BKN150 FM250600 28007KT P6SM SCT020 BKN060 FM251000 26004KT P6SM BKN030 BKN060 FM251600 VRB04KT P6SM SCT030 SCT080